sensor_id;sensor_type;location;lat;lon;timestamp;temperature;humidity
6407;DHT22;3236;51.022;6.818;2023-12-07T00:01:15;0.90;99.90
6407;DHT22;3236;51.022;6.818;2023-12-07T00:03:42;0.70;99.90
6407;DHT22;3236;51.022;6.818;2023-12-07T00:06:09;0.60;99.90
6407;DHT22;3236;51.022;6.818;2023-12-07T00:08:36;0.80;99.90
6407;DHT22;3236;51.022;6.818;2023-12-07T00:11:06;0.80;99.90
6407;DHT22;3236;51.022;6.818;2023-12-07T00:13:33;0.50;99.90
6407;DHT22;3236;51.022;6.818;2023-12-07T00:16:00;0.60;99.90
6407;DHT22;3236;51.022;6.818;2023-12-07T00:18:29;1.60;99.90
6407;DHT22;3236;51.022;6.818;2023-12-07T00:20:56;0.60;99.90
6407;DHT22;3236;51.022;6.818;2023-12-07T00:23:26;0.80;99.90
6407;DHT22;3236;51.022;6.818;2023-12-07T00:25:53;1.10;99.90
6407;DHT22;3236;51.022;6.818;2023-12-07T00:28:20;1.90;99.90
6407;DHT22;3236;51.022;6.818;2023-12-07T00:30:48;0.80;99.90
6407;DHT22;3236;51.022;6.818;2023-12-07T00:33:16;0.70;99.90
6407;DHT22;3236;51.022;6.818;2023-12-07T00:35:47;0.60;99.90
6407;DHT22;3236;51.022;6.818;2023-12-07T00:40:45;0.20;99.90
6407;DHT22;3236;51.022;6.818;2023-12-07T00:43:12;0.30;99.90
6407;DHT22;3236;51.022;6.818;2023-12-07T00:48:06;0.20;99.90
6407;DHT22;3236;51.022;6.818;2023-12-07T00:50:33;0.00;99.90
6407;DHT22;3236;51.022;6.818;2023-12-07T00:53:02;0.00;99.90
6407;DHT22;3236;51.022;6.818;2023-12-07T00:55:29;0.20;99.90
6407;DHT22;3236;51.022;6.818;2023-12-07T00:57:57;0.50;99.90
6407;DHT22;3236;51.022;6.818;2023-12-07T01:00:26;0.30;99.90
6407;DHT22;3236;51.022;6.818;2023-12-07T01:05:21;0.20;99.90
6407;DHT22;3236;51.022;6.818;2023-12-07T01:07:48;0.40;99.90
6407;DHT22;3236;51.022;6.818;2023-12-07T01:10:17;0.30;99.90
6407;DHT22;3236;51.022;6.818;2023-12-07T01:12:44;0.10;99.90
6407;DHT22;3236;51.022;6.818;2023-12-07T01:15:11;0.10;99.90
6407;DHT22;3236;51.022;6.818;2023-12-07T01:17:38;0.00;99.90
6407;DHT22;3236;51.022;6.818;2023-12-07T01:20:06;-0.20;99.90
6407;DHT22;3236;51.022;6.818;2023-12-07T01:22:38;0.00;99.90
6407;DHT22;3236;51.022;6.818;2023-12-07T01:25:06;-0.10;99.90
6407;DHT22;3236;51.022;6.818;2023-12-07T01:27:37;0.10;99.90
6407;DHT22;3236;51.022;6.818;2023-12-07T01:30:06;-0.30;99.90
6407;DHT22;3236;51.022;6.818;2023-12-07T01:32:33;0.10;99.90
6407;DHT22;3236;51.022;6.818;2023-12-07T01:35:00;0.40;99.90
6407;DHT22;3236;51.022;6.818;2023-12-07T01:37:28;0.30;99.90
6407;DHT22;3236;51.022;6.818;2023-12-07T01:39:56;0.10;99.90
6407;DHT22;3236;51.022;6.818;2023-12-07T01:42:23;0.10;99.90
6407;DHT22;3236;51.022;6.818;2023-12-07T01:44:53;-0.20;99.90
6407;DHT22;3236;51.022;6.818;2023-12-07T01:47:20;-0.20;99.90
6407;DHT22;3236;51.022;6.818;2023-12-07T01:49:47;1.00;99.90
6407;DHT22;3236;51.022;6.818;2023-12-07T01:52:14;-0.20;99.90
6407;DHT22;3236;51.022;6.818;2023-12-07T01:54:42;-0.40;99.90
6407;DHT22;3236;51.022;6.818;2023-12-07T01:57:09;-0.20;99.90
6407;DHT22;3236;51.022;6.818;2023-12-07T01:59:37;-0.30;99.90
6407;DHT22;3236;51.022;6.818;2023-12-07T02:02:05;-0.20;99.90
6407;DHT22;3236;51.022;6.818;2023-12-07T02:04:32;-0.40;99.90
6407;DHT22;3236;51.022;6.818;2023-12-07T02:07:00;-0.50;99.90
6407;DHT22;3236;51.022;6.818;2023-12-07T02:09:28;-0.50;99.90
6407;DHT22;3236;51.022;6.818;2023-12-07T02:11:55;-0.20;99.90
6407;DHT22;3236;51.022;6.818;2023-12-07T02:14:26;0.00;99.90
6407;DHT22;3236;51.022;6.818;2023-12-07T02:16:57;0.20;99.90
6407;DHT22;3236;51.022;6.818;2023-12-07T02:19:49;0.10;99.90
6407;DHT22;3236;51.022;6.818;2023-12-07T02:22:25;-0.20;99.90
6407;DHT22;3236;51.022;6.818;2023-12-07T02:25:06;0.40;99.90
6407;DHT22;3236;51.022;6.818;2023-12-07T02:27:39;0.10;99.90
6407;DHT22;3236;51.022;6.818;2023-12-07T02:30:08;0.50;99.90
6407;DHT22;3236;51.022;6.818;2023-12-07T02:32:36;0.20;99.90
6407;DHT22;3236;51.022;6.818;2023-12-07T02:35:04;0.60;99.90
6407;DHT22;3236;51.022;6.818;2023-12-07T02:37:35;0.20;99.90
6407;DHT22;3236;51.022;6.818;2023-12-07T02:40:06;0.00;99.90
6407;DHT22;3236;51.022;6.818;2023-12-07T02:42:38;0.10;99.90
6407;DHT22;3236;51.022;6.818;2023-12-07T02:45:07;0.50;99.90
6407;DHT22;3236;51.022;6.818;2023-12-07T02:47:35;0.40;99.90
6407;DHT22;3236;51.022;6.818;2023-12-07T02:50:02;0.40;99.90
6407;DHT22;3236;51.022;6.818;2023-12-07T02:52:29;0.70;99.90
6407;DHT22;3236;51.022;6.818;2023-12-07T02:54:56;0.70;99.90
6407;DHT22;3236;51.022;6.818;2023-12-07T02:57:23;0.30;99.90
6407;DHT22;3236;51.022;6.818;2023-12-07T02:59:52;0.30;99.90
6407;DHT22;3236;51.022;6.818;2023-12-07T03:02:19;0.90;99.90
6407;DHT22;3236;51.022;6.818;2023-12-07T03:04:46;0.60;99.90
6407;DHT22;3236;51.022;6.818;2023-12-07T03:07:13;0.60;99.90
6407;DHT22;3236;51.022;6.818;2023-12-07T03:09:40;0.60;99.90
6407;DHT22;3236;51.022;6.818;2023-12-07T03:12:07;1.00;99.90
6407;DHT22;3236;51.022;6.818;2023-12-07T03:14:34;1.00;99.90
6407;DHT22;3236;51.022;6.818;2023-12-07T03:17:03;1.10;99.90
6407;DHT22;3236;51.022;6.818;2023-12-07T03:19:31;1.10;99.90
6407;DHT22;3236;51.022;6.818;2023-12-07T03:21:58;1.10;99.90
6407;DHT22;3236;51.022;6.818;2023-12-07T03:24:25;1.80;99.90
6407;DHT22;3236;51.022;6.818;2023-12-07T03:26:52;1.60;99.90
6407;DHT22;3236;51.022;6.818;2023-12-07T03:29:19;1.60;99.90
6407;DHT22;3236;51.022;6.818;2023-12-07T03:31:46;1.40;99.90
6407;DHT22;3236;51.022;6.818;2023-12-07T03:34:15;1.40;99.90
6407;DHT22;3236;51.022;6.818;2023-12-07T03:36:44;1.50;99.90
6407;DHT22;3236;51.022;6.818;2023-12-07T03:39:12;1.40;99.90
6407;DHT22;3236;51.022;6.818;2023-12-07T03:41:40;1.50;99.90
6407;DHT22;3236;51.022;6.818;2023-12-07T03:44:07;1.30;99.90
6407;DHT22;3236;51.022;6.818;2023-12-07T03:46:34;1.20;99.90
6407;DHT22;3236;51.022;6.818;2023-12-07T03:49:01;1.50;99.90
6407;DHT22;3236;51.022;6.818;2023-12-07T03:53:57;1.30;99.90
6407;DHT22;3236;51.022;6.818;2023-12-07T03:56:25;1.80;99.90
6407;DHT22;3236;51.022;6.818;2023-12-07T03:58:55;1.30;99.90
6407;DHT22;3236;51.022;6.818;2023-12-07T04:01:23;1.30;99.90
6407;DHT22;3236;51.022;6.818;2023-12-07T04:03:50;1.80;99.90
6407;DHT22;3236;51.022;6.818;2023-12-07T04:06:17;1.50;99.90
6407;DHT22;3236;51.022;6.818;2023-12-07T04:08:47;1.20;99.90
6407;DHT22;3236;51.022;6.818;2023-12-07T04:11:15;1.60;99.90
6407;DHT22;3236;51.022;6.818;2023-12-07T04:13:42;1.60;99.90
6407;DHT22;3236;51.022;6.818;2023-12-07T04:16:10;1.90;99.90
6407;DHT22;3236;51.022;6.818;2023-12-07T04:18:37;1.80;99.90
6407;DHT22;3236;51.022;6.818;2023-12-07T04:21:05;2.10;99.90
6407;DHT22;3236;51.022;6.818;2023-12-07T04:23:32;1.70;99.90
6407;DHT22;3236;51.022;6.818;2023-12-07T04:26:01;2.10;99.90
6407;DHT22;3236;51.022;6.818;2023-12-07T04:28:31;2.20;99.90
6407;DHT22;3236;51.022;6.818;2023-12-07T04:30:58;2.10;99.90
6407;DHT22;3236;51.022;6.818;2023-12-07T04:35:53;2.20;99.90
6407;DHT22;3236;51.022;6.818;2023-12-07T04:38:20;2.40;99.90
6407;DHT22;3236;51.022;6.818;2023-12-07T04:40:48;1.80;99.90
6407;DHT22;3236;51.022;6.818;2023-12-07T04:43:16;2.10;99.90
6407;DHT22;3236;51.022;6.818;2023-12-07T04:45:43;2.30;99.90
6407;DHT22;3236;51.022;6.818;2023-12-07T04:50:38;2.40;99.90
6407;DHT22;3236;51.022;6.818;2023-12-07T04:53:05;2.50;99.90
6407;DHT22;3236;51.022;6.818;2023-12-07T04:55:32;2.60;99.90
6407;DHT22;3236;51.022;6.818;2023-12-07T04:57:59;2.70;99.90
6407;DHT22;3236;51.022;6.818;2023-12-07T05:00:27;2.50;99.90
6407;DHT22;3236;51.022;6.818;2023-12-07T05:02:55;2.50;99.90
6407;DHT22;3236;51.022;6.818;2023-12-07T05:05:22;2.40;99.90
6407;DHT22;3236;51.022;6.818;2023-12-07T05:07:50;2.10;99.90
6407;DHT22;3236;51.022;6.818;2023-12-07T05:10:17;3.50;99.90
6407;DHT22;3236;51.022;6.818;2023-12-07T05:12:44;2.10;99.90
6407;DHT22;3236;51.022;6.818;2023-12-07T05:15:11;2.50;99.90
6407;DHT22;3236;51.022;6.818;2023-12-07T05:17:40;2.40;99.90
6407;DHT22;3236;51.022;6.818;2023-12-07T05:20:08;2.60;99.90
6407;DHT22;3236;51.022;6.818;2023-12-07T05:22:35;2.60;99.90
6407;DHT22;3236;51.022;6.818;2023-12-07T05:25:02;2.80;99.90
6407;DHT22;3236;51.022;6.818;2023-12-07T05:27:30;2.30;99.90
6407;DHT22;3236;51.022;6.818;2023-12-07T05:29:57;2.80;99.90
6407;DHT22;3236;51.022;6.818;2023-12-07T05:32:24;2.60;99.90
6407;DHT22;3236;51.022;6.818;2023-12-07T05:34:53;3.00;99.90
6407;DHT22;3236;51.022;6.818;2023-12-07T05:37:20;2.70;99.90
6407;DHT22;3236;51.022;6.818;2023-12-07T05:39:47;2.20;99.90
6407;DHT22;3236;51.022;6.818;2023-12-07T05:42:14;2.20;99.90
6407;DHT22;3236;51.022;6.818;2023-12-07T05:44:42;2.50;99.90
6407;DHT22;3236;51.022;6.818;2023-12-07T05:47:09;2.30;99.90
6407;DHT22;3236;51.022;6.818;2023-12-07T05:52:06;2.70;99.90
6407;DHT22;3236;51.022;6.818;2023-12-07T05:57:00;2.50;99.90
6407;DHT22;3236;51.022;6.818;2023-12-07T05:59:27;2.70;99.90
6407;DHT22;3236;51.022;6.818;2023-12-07T06:01:58;2.70;99.90
6407;DHT22;3236;51.022;6.818;2023-12-07T06:06:52;2.70;99.90
6407;DHT22;3236;51.022;6.818;2023-12-07T06:09:21;2.40;99.90
6407;DHT22;3236;51.022;6.818;2023-12-07T06:11:48;2.50;99.90
6407;DHT22;3236;51.022;6.818;2023-12-07T06:14:15;2.00;99.90
6407;DHT22;3236;51.022;6.818;2023-12-07T06:16:44;2.50;99.90
6407;DHT22;3236;51.022;6.818;2023-12-07T06:19:11;2.10;99.90
6407;DHT22;3236;51.022;6.818;2023-12-07T06:21:39;1.80;99.90
6407;DHT22;3236;51.022;6.818;2023-12-07T06:26:35;2.00;99.90
6407;DHT22;3236;51.022;6.818;2023-12-07T06:29:02;2.30;99.90
6407;DHT22;3236;51.022;6.818;2023-12-07T06:31:29;2.00;99.90
6407;DHT22;3236;51.022;6.818;2023-12-07T06:33:56;1.70;99.90
6407;DHT22;3236;51.022;6.818;2023-12-07T06:36:24;2.50;99.90
6407;DHT22;3236;51.022;6.818;2023-12-07T06:38:52;2.30;99.90
6407;DHT22;3236;51.022;6.818;2023-12-07T06:41:20;2.60;99.90
6407;DHT22;3236;51.022;6.818;2023-12-07T06:43:49;2.40;99.90
6407;DHT22;3236;51.022;6.818;2023-12-07T06:46:16;2.40;99.90
6407;DHT22;3236;51.022;6.818;2023-12-07T06:48:43;2.10;99.90
6407;DHT22;3236;51.022;6.818;2023-12-07T06:51:10;2.10;99.90
6407;DHT22;3236;51.022;6.818;2023-12-07T06:53:38;2.00;99.90
6407;DHT22;3236;51.022;6.818;2023-12-07T06:56:06;1.90;99.90
6407;DHT22;3236;51.022;6.818;2023-12-07T06:58:33;1.80;99.90
6407;DHT22;3236;51.022;6.818;2023-12-07T07:01:02;1.90;99.90
6407;DHT22;3236;51.022;6.818;2023-12-07T07:03:29;1.90;99.90
6407;DHT22;3236;51.022;6.818;2023-12-07T07:08:25;1.80;99.90
6407;DHT22;3236;51.022;6.818;2023-12-07T07:10:52;1.60;99.90
6407;DHT22;3236;51.022;6.818;2023-12-07T07:13:22;1.90;99.90
6407;DHT22;3236;51.022;6.818;2023-12-07T07:15:49;1.90;99.90
6407;DHT22;3236;51.022;6.818;2023-12-07T07:18:24;1.70;99.90
6407;DHT22;3236;51.022;6.818;2023-12-07T07:21:13;1.80;99.90
6407;DHT22;3236;51.022;6.818;2023-12-07T07:28:50;1.60;99.90
6407;DHT22;3236;51.022;6.818;2023-12-07T07:31:17;2.70;99.90
6407;DHT22;3236;51.022;6.818;2023-12-07T07:33:46;2.00;99.90
6407;DHT22;3236;51.022;6.818;2023-12-07T07:36:14;1.80;99.90
6407;DHT22;3236;51.022;6.818;2023-12-07T07:41:12;1.60;99.90
6407;DHT22;3236;51.022;6.818;2023-12-07T07:43:39;1.90;99.90
6407;DHT22;3236;51.022;6.818;2023-12-07T07:46:06;1.50;99.90
6407;DHT22;3236;51.022;6.818;2023-12-07T07:48:34;1.70;99.90
6407;DHT22;3236;51.022;6.818;2023-12-07T07:51:04;1.50;99.90
6407;DHT22;3236;51.022;6.818;2023-12-07T07:53:31;1.90;99.90
6407;DHT22;3236;51.022;6.818;2023-12-07T08:00:53;1.80;99.90
6407;DHT22;3236;51.022;6.818;2023-12-07T08:08:16;1.40;99.90
6407;DHT22;3236;51.022;6.818;2023-12-07T08:13:11;1.50;99.90
6407;DHT22;3236;51.022;6.818;2023-12-07T08:15:38;1.80;99.90
6407;DHT22;3236;51.022;6.818;2023-12-07T08:20:33;1.70;99.90
6407;DHT22;3236;51.022;6.818;2023-12-07T08:23:00;1.70;99.90
6407;DHT22;3236;51.022;6.818;2023-12-07T08:25:29;0.80;99.90
6407;DHT22;3236;51.022;6.818;2023-12-07T08:30:24;2.10;99.90
6407;DHT22;3236;51.022;6.818;2023-12-07T08:32:51;1.80;99.90
6407;DHT22;3236;51.022;6.818;2023-12-07T08:35:19;1.90;99.90
6407;DHT22;3236;51.022;6.818;2023-12-07T08:42:49;2.20;99.90
6407;DHT22;3236;51.022;6.818;2023-12-07T08:47:43;1.90;99.90
6407;DHT22;3236;51.022;6.818;2023-12-07T08:50:10;2.50;99.90
6407;DHT22;3236;51.022;6.818;2023-12-07T08:52:37;2.40;99.90
6407;DHT22;3236;51.022;6.818;2023-12-07T08:55:05;2.30;99.90
6407;DHT22;3236;51.022;6.818;2023-12-07T09:00:05;2.40;99.90
6407;DHT22;3236;51.022;6.818;2023-12-07T09:02:32;2.00;99.90
6407;DHT22;3236;51.022;6.818;2023-12-07T09:05:00;2.30;99.90
6407;DHT22;3236;51.022;6.818;2023-12-07T09:09:56;2.40;99.90
6407;DHT22;3236;51.022;6.818;2023-12-07T09:12:23;2.50;99.90
6407;DHT22;3236;51.022;6.818;2023-12-07T09:14:50;2.30;99.90
6407;DHT22;3236;51.022;6.818;2023-12-07T09:17:19;2.40;99.90
6407;DHT22;3236;51.022;6.818;2023-12-07T09:19:46;2.70;99.90
6407;DHT22;3236;51.022;6.818;2023-12-07T09:22:13;2.40;99.90
6407;DHT22;3236;51.022;6.818;2023-12-07T09:27:09;2.70;99.90
6407;DHT22;3236;51.022;6.818;2023-12-07T09:29:37;2.80;99.90
6407;DHT22;3236;51.022;6.818;2023-12-07T09:32:05;2.60;99.90
6407;DHT22;3236;51.022;6.818;2023-12-07T09:34:33;2.80;99.90
6407;DHT22;3236;51.022;6.818;2023-12-07T09:37:08;2.60;99.90
6407;DHT22;3236;51.022;6.818;2023-12-07T09:39:35;2.70;99.90
6407;DHT22;3236;51.022;6.818;2023-12-07T09:42:03;3.00;99.90
6407;DHT22;3236;51.022;6.818;2023-12-07T09:46:57;2.60;99.90
6407;DHT22;3236;51.022;6.818;2023-12-07T09:49:24;3.00;99.90
6407;DHT22;3236;51.022;6.818;2023-12-07T09:51:54;2.80;99.90
6407;DHT22;3236;51.022;6.818;2023-12-07T09:59:19;2.90;99.90
6407;DHT22;3236;51.022;6.818;2023-12-07T10:01:46;3.30;99.90
6407;DHT22;3236;51.022;6.818;2023-12-07T10:04:16;3.10;99.90
6407;DHT22;3236;51.022;6.818;2023-12-07T10:11:40;3.00;99.90
6407;DHT22;3236;51.022;6.818;2023-12-07T10:19:16;3.50;99.90
6407;DHT22;3236;51.022;6.818;2023-12-07T10:21:47;3.10;99.90
6407;DHT22;3236;51.022;6.818;2023-12-07T10:24:18;3.40;99.90
6407;DHT22;3236;51.022;6.818;2023-12-07T10:26:46;3.30;99.90
6407;DHT22;3236;51.022;6.818;2023-12-07T10:29:13;3.00;99.90
6407;DHT22;3236;51.022;6.818;2023-12-07T10:31:41;3.30;99.90
6407;DHT22;3236;51.022;6.818;2023-12-07T10:34:09;3.50;99.90
6407;DHT22;3236;51.022;6.818;2023-12-07T10:36:36;3.00;99.90
6407;DHT22;3236;51.022;6.818;2023-12-07T10:39:06;3.50;99.90
6407;DHT22;3236;51.022;6.818;2023-12-07T10:41:35;3.10;99.90
6407;DHT22;3236;51.022;6.818;2023-12-07T10:44:05;3.30;99.90
6407;DHT22;3236;51.022;6.818;2023-12-07T10:49:04;3.50;99.90
6407;DHT22;3236;51.022;6.818;2023-12-07T10:51:34;3.60;99.90
6407;DHT22;3236;51.022;6.818;2023-12-07T10:54:04;3.60;99.90
6407;DHT22;3236;51.022;6.818;2023-12-07T10:56:39;3.90;99.90
6407;DHT22;3236;51.022;6.818;2023-12-07T10:59:09;4.20;99.90
6407;DHT22;3236;51.022;6.818;2023-12-07T11:01:38;4.40;99.90
6407;DHT22;3236;51.022;6.818;2023-12-07T11:04:07;4.40;99.90
6407;DHT22;3236;51.022;6.818;2023-12-07T11:06:34;4.50;99.90
6407;DHT22;3236;51.022;6.818;2023-12-07T11:09:06;4.10;99.90
6407;DHT22;3236;51.022;6.818;2023-12-07T11:11:41;4.50;99.90
6407;DHT22;3236;51.022;6.818;2023-12-07T11:14:10;4.90;99.90
6407;DHT22;3236;51.022;6.818;2023-12-07T11:16:40;5.10;99.90
6407;DHT22;3236;51.022;6.818;2023-12-07T11:19:44;5.10;99.90
6407;DHT22;3236;51.022;6.818;2023-12-07T11:22:12;5.80;99.90
6407;DHT22;3236;51.022;6.818;2023-12-07T11:24:52;5.90;99.90
6407;DHT22;3236;51.022;6.818;2023-12-07T11:27:21;5.00;99.90
6407;DHT22;3236;51.022;6.818;2023-12-07T11:29:48;5.40;99.90
6407;DHT22;3236;51.022;6.818;2023-12-07T11:34:44;5.70;99.90
6407;DHT22;3236;51.022;6.818;2023-12-07T11:37:14;5.30;99.90
6407;DHT22;3236;51.022;6.818;2023-12-07T11:39:42;5.10;99.90
6407;DHT22;3236;51.022;6.818;2023-12-07T11:42:12;4.50;99.90
6407;DHT22;3236;51.022;6.818;2023-12-07T11:44:44;4.70;99.90
6407;DHT22;3236;51.022;6.818;2023-12-07T11:47:16;5.60;99.90
6407;DHT22;3236;51.022;6.818;2023-12-07T11:49:45;5.70;99.90
6407;DHT22;3236;51.022;6.818;2023-12-07T11:52:16;5.50;99.90
6407;DHT22;3236;51.022;6.818;2023-12-07T11:54:44;6.10;99.90
6407;DHT22;3236;51.022;6.818;2023-12-07T11:57:12;6.90;99.90
6407;DHT22;3236;51.022;6.818;2023-12-07T12:02:12;6.20;99.90
6407;DHT22;3236;51.022;6.818;2023-12-07T12:04:40;6.00;99.90
6407;DHT22;3236;51.022;6.818;2023-12-07T12:07:08;6.70;99.90
6407;DHT22;3236;51.022;6.818;2023-12-07T12:12:06;6.70;99.90
6407;DHT22;3236;51.022;6.818;2023-12-07T12:17:06;7.60;99.90
6407;DHT22;3236;51.022;6.818;2023-12-07T12:19:35;7.10;99.90
6407;DHT22;3236;51.022;6.818;2023-12-07T12:22:03;6.30;99.90
6407;DHT22;3236;51.022;6.818;2023-12-07T12:24:32;6.70;99.90
6407;DHT22;3236;51.022;6.818;2023-12-07T12:31:55;6.30;99.90
6407;DHT22;3236;51.022;6.818;2023-12-07T12:34:22;6.50;99.90
6407;DHT22;3236;51.022;6.818;2023-12-07T12:36:57;6.70;99.90
6407;DHT22;3236;51.022;6.818;2023-12-07T12:42:10;6.90;99.90
6407;DHT22;3236;51.022;6.818;2023-12-07T12:47:19;6.80;99.90
6407;DHT22;3236;51.022;6.818;2023-12-07T12:49:46;6.60;99.90
6407;DHT22;3236;51.022;6.818;2023-12-07T12:52:17;6.90;99.90
6407;DHT22;3236;51.022;6.818;2023-12-07T12:57:12;7.10;1.00
6407;DHT22;3236;51.022;6.818;2023-12-07T13:02:07;7.20;99.90
6407;DHT22;3236;51.022;6.818;2023-12-07T13:04:41;7.60;1.00
6407;DHT22;3236;51.022;6.818;2023-12-07T13:09:37;6.70;99.90
6407;DHT22;3236;51.022;6.818;2023-12-07T13:12:05;6.40;99.90
6407;DHT22;3236;51.022;6.818;2023-12-07T13:14:32;6.40;99.90
6407;DHT22;3236;51.022;6.818;2023-12-07T13:17:01;7.00;80.20
6407;DHT22;3236;51.022;6.818;2023-12-07T13:21:59;6.30;55.10
6407;DHT22;3236;51.022;6.818;2023-12-07T13:29:23;6.20;1.00
6407;DHT22;3236;51.022;6.818;2023-12-07T13:31:53;6.30;98.60
6407;DHT22;3236;51.022;6.818;2023-12-07T13:39:16;6.40;99.90
6407;DHT22;3236;51.022;6.818;2023-12-07T13:41:46;6.20;99.90
6407;DHT22;3236;51.022;6.818;2023-12-07T13:44:19;6.30;95.20
6407;DHT22;3236;51.022;6.818;2023-12-07T13:49:14;6.70;99.90
6407;DHT22;3236;51.022;6.818;2023-12-07T13:54:09;6.20;1.00
6407;DHT22;3236;51.022;6.818;2023-12-07T14:01:36;6.30;99.90
6407;DHT22;3236;51.022;6.818;2023-12-07T14:04:05;6.00;1.00
6407;DHT22;3236;51.022;6.818;2023-12-07T14:11:34;5.10;1.00
6407;DHT22;3236;51.022;6.818;2023-12-07T14:18:58;4.40;64.30
6407;DHT22;3236;51.022;6.818;2023-12-07T14:21:26;4.40;99.90
6407;DHT22;3236;51.022;6.818;2023-12-07T14:36:13;3.90;99.90
6407;DHT22;3236;51.022;6.818;2023-12-07T14:38:40;3.50;99.90
6407;DHT22;3236;51.022;6.818;2023-12-07T14:41:16;3.80;99.90
6407;DHT22;3236;51.022;6.818;2023-12-07T14:51:09;3.30;56.40
6407;DHT22;3236;51.022;6.818;2023-12-07T14:53:38;3.50;99.90
6407;DHT22;3236;51.022;6.818;2023-12-07T14:56:06;3.40;99.90
6407;DHT22;3236;51.022;6.818;2023-12-07T14:58:33;2.90;99.90
6407;DHT22;3236;51.022;6.818;2023-12-07T15:01:05;3.10;99.90
6407;DHT22;3236;51.022;6.818;2023-12-07T15:03:33;3.10;99.90
6407;DHT22;3236;51.022;6.818;2023-12-07T15:13:25;2.90;99.90
6407;DHT22;3236;51.022;6.818;2023-12-07T15:15:53;3.30;99.90
6407;DHT22;3236;51.022;6.818;2023-12-07T15:18:23;3.10;99.90
6407;DHT22;3236;51.022;6.818;2023-12-07T15:25:46;2.80;99.90
6407;DHT22;3236;51.022;6.818;2023-12-07T15:35:40;2.70;99.90
6407;DHT22;3236;51.022;6.818;2023-12-07T15:38:08;2.60;99.90
6407;DHT22;3236;51.022;6.818;2023-12-07T15:40:37;2.60;99.90
6407;DHT22;3236;51.022;6.818;2023-12-07T15:43:04;2.60;99.90
6407;DHT22;3236;51.022;6.818;2023-12-07T15:45:40;3.00;99.90
6407;DHT22;3236;51.022;6.818;2023-12-07T15:48:10;2.60;99.90
6407;DHT22;3236;51.022;6.818;2023-12-07T15:50:37;2.40;99.90
6407;DHT22;3236;51.022;6.818;2023-12-07T15:53:04;2.70;99.90
6407;DHT22;3236;51.022;6.818;2023-12-07T15:55:32;2.60;99.90
6407;DHT22;3236;51.022;6.818;2023-12-07T15:57:59;2.40;99.90
6407;DHT22;3236;51.022;6.818;2023-12-07T16:00:27;2.90;99.90
6407;DHT22;3236;51.022;6.818;2023-12-07T16:02:56;2.80;99.90
6407;DHT22;3236;51.022;6.818;2023-12-07T16:05:22;2.60;99.90
6407;DHT22;3236;51.022;6.818;2023-12-07T16:07:49;2.30;99.90
6407;DHT22;3236;51.022;6.818;2023-12-07T16:10:17;2.90;99.90
6407;DHT22;3236;51.022;6.818;2023-12-07T16:12:45;2.60;99.90
6407;DHT22;3236;51.022;6.818;2023-12-07T16:15:13;2.60;99.90
6407;DHT22;3236;51.022;6.818;2023-12-07T16:17:41;2.50;99.90
6407;DHT22;3236;51.022;6.818;2023-12-07T16:22:42;2.80;99.90
6407;DHT22;3236;51.022;6.818;2023-12-07T16:25:10;2.50;99.90
6407;DHT22;3236;51.022;6.818;2023-12-07T16:27:37;2.40;99.90
6407;DHT22;3236;51.022;6.818;2023-12-07T16:30:07;2.50;99.90
6407;DHT22;3236;51.022;6.818;2023-12-07T16:32:44;2.70;99.90
6407;DHT22;3236;51.022;6.818;2023-12-07T16:35:16;2.40;99.90
6407;DHT22;3236;51.022;6.818;2023-12-07T16:37:43;2.40;99.90
6407;DHT22;3236;51.022;6.818;2023-12-07T16:40:11;2.50;99.90
6407;DHT22;3236;51.022;6.818;2023-12-07T16:42:38;2.30;99.90
6407;DHT22;3236;51.022;6.818;2023-12-07T16:45:06;2.20;99.90
6407;DHT22;3236;51.022;6.818;2023-12-07T16:47:37;2.20;99.90
6407;DHT22;3236;51.022;6.818;2023-12-07T16:52:34;2.30;99.90
6407;DHT22;3236;51.022;6.818;2023-12-07T16:55:03;2.50;99.90
6407;DHT22;3236;51.022;6.818;2023-12-07T16:57:32;2.20;99.90
6407;DHT22;3236;51.022;6.818;2023-12-07T17:00:01;2.40;99.90
6407;DHT22;3236;51.022;6.818;2023-12-07T17:02:30;2.00;99.90
6407;DHT22;3236;51.022;6.818;2023-12-07T17:04:58;2.10;99.90
6407;DHT22;3236;51.022;6.818;2023-12-07T17:07:25;2.00;99.90
6407;DHT22;3236;51.022;6.818;2023-12-07T17:09:59;2.30;99.90
6407;DHT22;3236;51.022;6.818;2023-12-07T17:12:31;2.30;99.90
6407;DHT22;3236;51.022;6.818;2023-12-07T17:14:58;2.40;99.90
6407;DHT22;3236;51.022;6.818;2023-12-07T17:17:26;2.20;99.90
6407;DHT22;3236;51.022;6.818;2023-12-07T17:19:53;2.00;99.90
6407;DHT22;3236;51.022;6.818;2023-12-07T17:22:22;2.00;99.90
6407;DHT22;3236;51.022;6.818;2023-12-07T17:27:18;2.10;99.90
6407;DHT22;3236;51.022;6.818;2023-12-07T17:34:40;2.00;99.90
6407;DHT22;3236;51.022;6.818;2023-12-07T17:37:10;2.30;99.90
6407;DHT22;3236;51.022;6.818;2023-12-07T17:39:37;2.10;99.90
6407;DHT22;3236;51.022;6.818;2023-12-07T17:42:05;2.20;99.90
6407;DHT22;3236;51.022;6.818;2023-12-07T17:44:48;2.20;99.90
6407;DHT22;3236;51.022;6.818;2023-12-07T17:47:15;1.90;99.90
6407;DHT22;3236;51.022;6.818;2023-12-07T17:49:42;2.00;99.90
6407;DHT22;3236;51.022;6.818;2023-12-07T17:52:09;1.90;99.90
6407;DHT22;3236;51.022;6.818;2023-12-07T17:54:37;2.30;99.90
6407;DHT22;3236;51.022;6.818;2023-12-07T17:57:05;2.30;99.90
6407;DHT22;3236;51.022;6.818;2023-12-07T17:59:32;2.20;99.90
6407;DHT22;3236;51.022;6.818;2023-12-07T18:04:30;2.10;99.90
6407;DHT22;3236;51.022;6.818;2023-12-07T18:06:59;2.30;99.90
6407;DHT22;3236;51.022;6.818;2023-12-07T18:09:27;1.90;99.90
6407;DHT22;3236;51.022;6.818;2023-12-07T18:11:54;1.90;99.90
6407;DHT22;3236;51.022;6.818;2023-12-07T18:16:52;2.00;99.90
6407;DHT22;3236;51.022;6.818;2023-12-07T18:19:20;1.90;99.90
6407;DHT22;3236;51.022;6.818;2023-12-07T18:21:48;2.00;99.90
6407;DHT22;3236;51.022;6.818;2023-12-07T18:24:15;2.50;99.90
6407;DHT22;3236;51.022;6.818;2023-12-07T18:26:42;2.10;99.90
6407;DHT22;3236;51.022;6.818;2023-12-07T18:29:09;2.10;99.90
6407;DHT22;3236;51.022;6.818;2023-12-07T18:31:36;2.00;99.90
6407;DHT22;3236;51.022;6.818;2023-12-07T18:39:29;2.00;99.90
6407;DHT22;3236;51.022;6.818;2023-12-07T18:41:59;1.90;99.90
6407;DHT22;3236;51.022;6.818;2023-12-07T18:44:29;1.90;99.90
6407;DHT22;3236;51.022;6.818;2023-12-07T18:46:56;1.90;99.90
6407;DHT22;3236;51.022;6.818;2023-12-07T18:49:24;1.70;99.90
6407;DHT22;3236;51.022;6.818;2023-12-07T18:51:52;1.90;99.90
6407;DHT22;3236;51.022;6.818;2023-12-07T18:54:20;2.10;99.90
6407;DHT22;3236;51.022;6.818;2023-12-07T18:56:47;2.20;99.90
6407;DHT22;3236;51.022;6.818;2023-12-07T18:59:14;1.70;99.90
6407;DHT22;3236;51.022;6.818;2023-12-07T19:01:48;2.00;99.90
6407;DHT22;3236;51.022;6.818;2023-12-07T19:04:16;2.00;99.90
6407;DHT22;3236;51.022;6.818;2023-12-07T19:06:52;1.90;99.90
6407;DHT22;3236;51.022;6.818;2023-12-07T19:11:50;2.00;99.90
6407;DHT22;3236;51.022;6.818;2023-12-07T19:14:17;2.30;99.90
6407;DHT22;3236;51.022;6.818;2023-12-07T19:16:47;2.10;99.90
6407;DHT22;3236;51.022;6.818;2023-12-07T19:19:14;2.70;99.90
6407;DHT22;3236;51.022;6.818;2023-12-07T19:21:41;1.80;99.90
6407;DHT22;3236;51.022;6.818;2023-12-07T19:24:10;1.80;99.90
6407;DHT22;3236;51.022;6.818;2023-12-07T19:29:05;2.10;99.90
6407;DHT22;3236;51.022;6.818;2023-12-07T19:31:40;1.80;99.90
6407;DHT22;3236;51.022;6.818;2023-12-07T19:34:10;1.80;99.90
6407;DHT22;3236;51.022;6.818;2023-12-07T19:36:41;2.00;99.90
6407;DHT22;3236;51.022;6.818;2023-12-07T19:39:11;2.00;99.90
6407;DHT22;3236;51.022;6.818;2023-12-07T19:41:41;1.80;99.90
6407;DHT22;3236;51.022;6.818;2023-12-07T19:44:09;1.80;99.90
6407;DHT22;3236;51.022;6.818;2023-12-07T19:49:04;1.80;99.90
6407;DHT22;3236;51.022;6.818;2023-12-07T19:51:32;1.70;99.90
6407;DHT22;3236;51.022;6.818;2023-12-07T19:53:59;2.00;99.90
6407;DHT22;3236;51.022;6.818;2023-12-07T19:56:29;2.00;99.90
6407;DHT22;3236;51.022;6.818;2023-12-07T19:58:57;2.20;99.90
6407;DHT22;3236;51.022;6.818;2023-12-07T20:03:52;1.90;99.90